sensor_id;sensor_type;location;lat;lon;timestamp;pressure;altitude;pressure_sealevel;temperature;humidity
71145;BME280;58812;47.698;17.726;2023-04-03T00:00:49;100421.16;;;3.38;84.88
71145;BME280;58812;47.698;17.726;2023-04-03T00:03:15;100417.34;;;3.42;84.61
71145;BME280;58812;47.698;17.726;2023-04-03T00:05:41;100427.37;;;3.37;85.03
71145;BME280;58812;47.698;17.726;2023-04-03T00:08:07;100426.25;;;3.41;85.02
71145;BME280;58812;47.698;17.726;2023-04-03T00:10:35;100433.44;;;3.39;85.34
71145;BME280;58812;47.698;17.726;2023-04-03T00:13:01;100428.78;;;3.43;85.23
71145;BME280;58812;47.698;17.726;2023-04-03T00:15:27;100434.56;;;3.35;85.69
71145;BME280;58812;47.698;17.726;2023-04-03T00:17:52;100434.00;;;3.30;86.21
71145;BME280;58812;47.698;17.726;2023-04-03T00:20:17;100442.91;;;3.29;86.51
71145;BME280;58812;47.698;17.726;2023-04-03T00:22:43;100441.19;;;3.28;86.87
71145;BME280;58812;47.698;17.726;2023-04-03T00:25:08;100441.19;;;3.28;86.69
71145;BME280;58812;47.698;17.726;2023-04-03T00:27:36;100442.91;;;3.29;86.70
71145;BME280;58812;47.698;17.726;2023-04-03T00:30:03;100444.81;;;3.27;87.00
71145;BME280;58812;47.698;17.726;2023-04-03T00:32:29;100441.59;;;3.22;87.46
71145;BME280;58812;47.698;17.726;2023-04-03T00:34:54;100440.63;;;3.23;87.40
71145;BME280;58812;47.698;17.726;2023-04-03T00:37:19;100442.44;;;3.22;87.61
71145;BME280;58812;47.698;17.726;2023-04-03T00:39:45;100438.16;;;3.20;87.63
71145;BME280;58812;47.698;17.726;2023-04-03T00:42:10;100447.25;;;3.16;87.83
71145;BME280;58812;47.698;17.726;2023-04-03T00:47:04;100438.16;;;3.20;87.74
71145;BME280;58812;47.698;17.726;2023-04-03T00:49:31;100444.41;;;3.19;87.90
71145;BME280;58812;47.698;17.726;2023-04-03T00:51:57;100446.87;;;3.22;87.40
71145;BME280;58812;47.698;17.726;2023-04-03T00:54:23;100446.50;;;3.28;86.99
71145;BME280;58812;47.698;17.726;2023-04-03T00:56:51;100445.94;;;3.23;87.12
71145;BME280;58812;47.698;17.726;2023-04-03T00:59:22;100443.28;;;3.23;87.38
71145;BME280;58812;47.698;17.726;2023-04-03T01:01:50;100440.06;;;3.18;87.45
71145;BME280;58812;47.698;17.726;2023-04-03T01:04:48;100448.00;;;3.18;87.37
71145;BME280;58812;47.698;17.726;2023-04-03T01:07:23;100440.06;;;3.18;87.63
71145;BME280;58812;47.698;17.726;2023-04-03T01:09:56;100444.63;;;3.16;87.49
71145;BME280;58812;47.698;17.726;2023-04-03T01:12:28;100442.06;;;3.14;87.46
71145;BME280;58812;47.698;17.726;2023-04-03T01:14:59;100436.28;;;3.08;87.84
71145;BME280;58812;47.698;17.726;2023-04-03T01:25:11;100438.75;;;3.11;86.94
71145;BME280;58812;47.698;17.726;2023-04-03T01:27:36;100433.47;;;3.11;86.65
71145;BME280;58812;47.698;17.726;2023-04-03T01:30:02;100449.50;;;3.08;86.84
71145;BME280;58812;47.698;17.726;2023-04-03T01:32:28;100450.06;;;3.13;86.28
71145;BME280;58812;47.698;17.726;2023-04-03T01:34:53;100454.06;;;3.06;86.61
71145;BME280;58812;47.698;17.726;2023-04-03T01:37:18;100448.00;;;3.04;86.65
71145;BME280;58812;47.698;17.726;2023-04-03T01:39:44;100446.31;;;3.03;86.76
71145;BME280;58812;47.698;17.726;2023-04-03T01:42:10;100443.28;;;2.94;87.12
71145;BME280;58812;47.698;17.726;2023-04-03T01:44:36;100450.84;;;3.01;86.55
71145;BME280;58812;47.698;17.726;2023-04-03T01:47:05;100453.22;;;2.91;87.18
71145;BME280;58812;47.698;17.726;2023-04-03T01:49:31;100457.63;;;2.90;86.99
71145;BME280;58812;47.698;17.726;2023-04-03T01:51:56;100459.62;;;2.87;87.12
71145;BME280;58812;47.698;17.726;2023-04-03T01:54:22;100459.62;;;2.87;87.42
71145;BME280;58812;47.698;17.726;2023-04-03T01:56:47;100456.50;;;2.80;87.42
71145;BME280;58812;47.698;17.726;2023-04-03T01:59:12;100464.16;;;2.85;87.17
71145;BME280;58812;47.698;17.726;2023-04-03T02:01:38;100459.03;;;2.82;87.34
71145;BME280;58812;47.698;17.726;2023-04-03T02:04:03;100454.59;;;2.82;87.20
71145;BME280;58812;47.698;17.726;2023-04-03T02:06:29;100466.69;;;2.86;86.89
71145;BME280;58812;47.698;17.726;2023-04-03T02:08:54;100461.78;;;2.80;87.50
71145;BME280;58812;47.698;17.726;2023-04-03T02:11:20;100456.78;;;2.90;86.39
71145;BME280;58812;47.698;17.726;2023-04-03T02:13:45;100461.22;;;2.89;86.42
71145;BME280;58812;47.698;17.726;2023-04-03T02:16:11;100454.06;;;2.91;86.29
71145;BME280;58812;47.698;17.726;2023-04-03T02:18:37;100458.56;;;2.89;86.38
71145;BME280;58812;47.698;17.726;2023-04-03T02:21:03;100456.88;;;2.88;86.44
71145;BME280;58812;47.698;17.726;2023-04-03T02:23:29;100458.88;;;2.85;86.54
71145;BME280;58812;47.698;17.726;2023-04-03T02:26:03;100467.91;;;2.81;86.87
71145;BME280;58812;47.698;17.726;2023-04-03T02:28:28;100468.75;;;2.81;86.90
71145;BME280;58812;47.698;17.726;2023-04-03T02:30:54;100464.22;;;2.83;86.64
71145;BME280;58812;47.698;17.726;2023-04-03T02:33:19;100467.25;;;2.77;86.96
71145;BME280;58812;47.698;17.726;2023-04-03T02:35:45;100461.88;;;2.79;86.92
71145;BME280;58812;47.698;17.726;2023-04-03T02:38:18;100458.66;;;2.74;87.28
71145;BME280;58812;47.698;17.726;2023-04-03T02:40:43;100463.84;;;2.75;87.32
71145;BME280;58812;47.698;17.726;2023-04-03T02:43:09;100464.78;;;2.74;87.12
71145;BME280;58812;47.698;17.726;2023-04-03T02:45:35;100464.00;;;2.72;87.44
71145;BME280;58812;47.698;17.726;2023-04-03T02:48:00;100471.19;;;2.70;87.47
71145;BME280;58812;47.698;17.726;2023-04-03T02:50:26;100457.22;;;2.68;87.67
71145;BME280;58812;47.698;17.726;2023-04-03T02:52:51;100466.59;;;2.74;87.25
71145;BME280;58812;47.698;17.726;2023-04-03T02:55:16;100463.09;;;2.73;87.23
71145;BME280;58812;47.698;17.726;2023-04-03T02:57:42;100466.09;;;2.67;87.52
71145;BME280;58812;47.698;17.726;2023-04-03T03:00:08;100464.59;;;2.63;87.64
71145;BME280;58812;47.698;17.726;2023-04-03T03:02:35;100461.19;;;2.61;88.04
71145;BME280;58812;47.698;17.726;2023-04-03T03:05:00;100456.25;;;2.55;88.65
71145;BME280;58812;47.698;17.726;2023-04-03T03:07:26;100456.25;;;2.55;88.74
71145;BME280;58812;47.698;17.726;2023-04-03T03:09:51;100450.94;;;2.55;88.91
71145;BME280;58812;47.698;17.726;2023-04-03T03:12:17;100457.53;;;2.48;89.42
71145;BME280;58812;47.698;17.726;2023-04-03T03:14:47;100459.34;;;2.47;89.58
71145;BME280;58812;47.698;17.726;2023-04-03T03:17:12;100458.69;;;2.44;89.76
71145;BME280;58812;47.698;17.726;2023-04-03T03:19:38;100457.66;;;2.46;89.86
71145;BME280;58812;47.698;17.726;2023-04-03T03:22:03;100462.09;;;2.46;89.86
71145;BME280;58812;47.698;17.726;2023-04-03T03:24:28;100461.22;;;2.45;89.84
71145;BME280;58812;47.698;17.726;2023-04-03T03:26:54;100451.06;;;2.53;88.67
71145;BME280;58812;47.698;17.726;2023-04-03T03:29:20;100458.41;;;2.48;88.97
71145;BME280;58812;47.698;17.726;2023-04-03T03:31:45;100451.41;;;2.47;88.84
71145;BME280;58812;47.698;17.726;2023-04-03T03:34:11;100447.06;;;2.46;88.61
71145;BME280;58812;47.698;17.726;2023-04-03T03:36:37;100464.13;;;2.40;88.97
71145;BME280;58812;47.698;17.726;2023-04-03T03:39:03;100458.31;;;2.50;87.85
71145;BME280;58812;47.698;17.726;2023-04-03T03:41:28;100463.09;;;2.43;88.33
71145;BME280;58812;47.698;17.726;2023-04-03T03:43:53;100456.03;;;2.44;87.76
71145;BME280;58812;47.698;17.726;2023-04-03T03:46:19;100458.50;;;2.47;87.33
71145;BME280;58812;47.698;17.726;2023-04-03T03:48:45;100447.56;;;2.53;86.56
71145;BME280;58812;47.698;17.726;2023-04-03T03:51:10;100449.63;;;2.48;86.51
71145;BME280;58812;47.698;17.726;2023-04-03T03:53:36;100452.38;;;2.46;86.62
71145;BME280;58812;47.698;17.726;2023-04-03T03:56:01;100445.88;;;2.52;86.08
71145;BME280;58812;47.698;17.726;2023-04-03T03:58:27;100455.09;;;2.45;86.58
71145;BME280;58812;47.698;17.726;2023-04-03T04:00:52;100465.72;;;2.43;86.54
71145;BME280;58812;47.698;17.726;2023-04-03T04:03:18;100456.97;;;2.42;86.50
71145;BME280;58812;47.698;17.726;2023-04-03T04:05:43;100457.16;;;2.39;86.61
71145;BME280;58812;47.698;17.726;2023-04-03T04:08:09;100459.06;;;2.37;86.72
71145;BME280;58812;47.698;17.726;2023-04-03T04:10:35;100462.69;;;2.35;86.53
71145;BME280;58812;47.698;17.726;2023-04-03T04:13:02;100460.66;;;2.40;86.06
71145;BME280;58812;47.698;17.726;2023-04-03T04:15:28;100455.62;;;2.35;86.23
71145;BME280;58812;47.698;17.726;2023-04-03T04:17:54;100456.31;;;2.39;85.88
71145;BME280;58812;47.698;17.726;2023-04-03T04:20:20;100448.16;;;2.28;86.42
71145;BME280;58812;47.698;17.726;2023-04-03T04:22:45;100447.31;;;2.27;86.27
71145;BME280;58812;47.698;17.726;2023-04-03T04:25:11;100454.88;;;2.33;85.63
71145;BME280;58812;47.698;17.726;2023-04-03T04:27:36;100449.84;;;2.29;85.75
71145;BME280;58812;47.698;17.726;2023-04-03T04:30:03;100453.94;;;2.34;85.26
71145;BME280;58812;47.698;17.726;2023-04-03T04:32:29;100460.91;;;2.35;85.21
71145;BME280;58812;47.698;17.726;2023-04-03T04:34:55;100451.38;;;2.33;85.30
71145;BME280;58812;47.698;17.726;2023-04-03T04:37:20;100461.94;;;2.33;85.29
71145;BME280;58812;47.698;17.726;2023-04-03T04:39:46;100458.47;;;2.32;85.40
71145;BME280;58812;47.698;17.726;2023-04-03T04:42:11;100457.69;;;2.30;85.49
71145;BME280;58812;47.698;17.726;2023-04-03T04:44:38;100464.50;;;2.34;85.29
71145;BME280;58812;47.698;17.726;2023-04-03T04:47:04;100464.13;;;2.40;84.81
71145;BME280;58812;47.698;17.726;2023-04-03T04:49:30;100469.75;;;2.50;84.17
71145;BME280;58812;47.698;17.726;2023-04-03T04:51:55;100472.41;;;2.64;83.54
71145;BME280;58812;47.698;17.726;2023-04-03T04:54:21;100475.38;;;2.88;81.74
71145;BME280;58812;47.698;17.726;2023-04-03T04:56:46;100474.00;;;3.11;81.23
71145;BME280;58812;47.698;17.726;2023-04-03T04:59:12;100477.09;;;3.18;80.11
71145;BME280;58812;47.698;17.726;2023-04-03T05:01:37;100472.19;;;3.40;79.38
71145;BME280;58812;47.698;17.726;2023-04-03T05:04:03;100478.16;;;3.44;78.88
71145;BME280;58812;47.698;17.726;2023-04-03T05:06:28;100472.47;;;3.50;78.65
71145;BME280;58812;47.698;17.726;2023-04-03T05:08:55;100478.59;;;3.65;77.96
71145;BME280;58812;47.698;17.726;2023-04-03T05:11:21;100482.91;;;3.66;77.75
71145;BME280;58812;47.698;17.726;2023-04-03T05:13:46;100483.66;;;3.82;77.39
71145;BME280;58812;47.698;17.726;2023-04-03T05:16:11;100479.72;;;4.02;77.14
71145;BME280;58812;47.698;17.726;2023-04-03T05:18:37;100487.66;;;3.75;77.95
71145;BME280;58812;47.698;17.726;2023-04-03T05:21:03;100477.22;;;3.86;78.12
71145;BME280;58812;47.698;17.726;2023-04-03T05:23:28;100488.37;;;3.91;77.84
71145;BME280;58812;47.698;17.726;2023-04-03T05:25:54;100482.53;;;3.72;78.94
71145;BME280;58812;47.698;17.726;2023-04-03T05:28:19;100478.91;;;3.87;79.13
71145;BME280;58812;47.698;17.726;2023-04-03T05:30:45;100495.16;;;3.95;79.00
71145;BME280;58812;47.698;17.726;2023-04-03T05:33:10;100511.78;;;4.12;78.62
71145;BME280;58812;47.698;17.726;2023-04-03T05:35:37;100484.87;;;4.18;77.39
71145;BME280;58812;47.698;17.726;2023-04-03T05:38:06;100511.25;;;4.46;77.13
71145;BME280;58812;47.698;17.726;2023-04-03T05:40:32;100513.69;;;4.49;77.03
71145;BME280;58812;47.698;17.726;2023-04-03T05:42:57;100504.09;;;4.74;76.44
71145;BME280;58812;47.698;17.726;2023-04-03T05:45:23;100499.62;;;4.62;75.70
71145;BME280;58812;47.698;17.726;2023-04-03T05:47:48;100508.50;;;5.00;74.57
71145;BME280;58812;47.698;17.726;2023-04-03T05:50:14;100511.56;;;5.07;74.30
71145;BME280;58812;47.698;17.726;2023-04-03T05:52:42;100517.50;;;4.98;73.45
71145;BME280;58812;47.698;17.726;2023-04-03T05:55:09;100524.53;;;5.12;73.15
71145;BME280;58812;47.698;17.726;2023-04-03T05:57:34;100528.44;;;5.44;72.26
71145;BME280;58812;47.698;17.726;2023-04-03T06:00:00;100515.59;;;5.38;71.38
71145;BME280;58812;47.698;17.726;2023-04-03T06:02:25;100509.88;;;5.19;70.86
71145;BME280;58812;47.698;17.726;2023-04-03T06:04:52;100514.06;;;5.72;70.22
71145;BME280;58812;47.698;17.726;2023-04-03T06:07:23;100513.44;;;5.69;68.96
71145;BME280;58812;47.698;17.726;2023-04-03T06:09:50;100507.28;;;5.55;69.30
71145;BME280;58812;47.698;17.726;2023-04-03T06:12:16;100518.34;;;5.49;69.16
71145;BME280;58812;47.698;17.726;2023-04-03T06:14:42;100500.72;;;5.48;69.55
71145;BME280;58812;47.698;17.726;2023-04-03T06:17:08;100516.38;;;5.89;67.31
71145;BME280;58812;47.698;17.726;2023-04-03T06:19:34;100514.19;;;5.71;67.93
71145;BME280;58812;47.698;17.726;2023-04-03T06:22:00;100522.25;;;5.69;67.71
71145;BME280;58812;47.698;17.726;2023-04-03T06:24:26;100525.03;;;5.93;67.76
71145;BME280;58812;47.698;17.726;2023-04-03T06:26:52;100515.25;;;6.18;66.36
71145;BME280;58812;47.698;17.726;2023-04-03T06:29:18;100530.16;;;6.07;66.44
71145;BME280;58812;47.698;17.726;2023-04-03T06:31:45;100533.41;;;6.48;65.54
71145;BME280;58812;47.698;17.726;2023-04-03T06:34:11;100536.22;;;6.33;65.30
71145;BME280;58812;47.698;17.726;2023-04-03T06:36:38;100539.22;;;5.92;66.10
71145;BME280;58812;47.698;17.726;2023-04-03T06:39:04;100547.94;;;6.31;65.00
71145;BME280;58812;47.698;17.726;2023-04-03T06:41:30;100537.12;;;6.21;65.10
71145;BME280;58812;47.698;17.726;2023-04-03T06:43:56;100539.84;;;6.08;65.12
71145;BME280;58812;47.698;17.726;2023-04-03T06:46:23;100541.19;;;6.14;64.81
71145;BME280;58812;47.698;17.726;2023-04-03T06:48:49;100550.81;;;5.78;65.37
71145;BME280;58812;47.698;17.726;2023-04-03T06:51:20;100546.59;;;5.63;66.30
71145;BME280;58812;47.698;17.726;2023-04-03T06:53:47;100541.00;;;6.41;64.78
71145;BME280;58812;47.698;17.726;2023-04-03T06:56:13;100543.53;;;6.19;65.07
71145;BME280;58812;47.698;17.726;2023-04-03T06:58:39;100560.78;;;6.13;64.57
71145;BME280;58812;47.698;17.726;2023-04-03T07:01:04;100558.16;;;6.00;64.67
71145;BME280;58812;47.698;17.726;2023-04-03T07:03:30;100555.22;;;6.16;64.11
71145;BME280;58812;47.698;17.726;2023-04-03T07:05:56;100555.41;;;6.26;63.06
71145;BME280;58812;47.698;17.726;2023-04-03T07:08:21;100568.97;;;6.47;63.02
71145;BME280;58812;47.698;17.726;2023-04-03T07:10:48;100557.56;;;6.68;62.93
71145;BME280;58812;47.698;17.726;2023-04-03T07:13:15;100564.88;;;6.54;62.78
71145;BME280;58812;47.698;17.726;2023-04-03T07:15:40;100563.22;;;6.03;63.52
71145;BME280;58812;47.698;17.726;2023-04-03T07:18:06;100573.28;;;6.24;63.32
71145;BME280;58812;47.698;17.726;2023-04-03T07:20:31;100566.50;;;6.43;62.83
71145;BME280;58812;47.698;17.726;2023-04-03T07:22:57;100565.53;;;6.45;62.67
71145;BME280;58812;47.698;17.726;2023-04-03T07:25:22;100565.16;;;6.38;62.71
71145;BME280;58812;47.698;17.726;2023-04-03T07:27:48;100567.75;;;6.75;62.33
71145;BME280;58812;47.698;17.726;2023-04-03T07:30:14;100583.34;;;7.03;61.13
71145;BME280;58812;47.698;17.726;2023-04-03T07:32:40;100593.88;;;6.33;62.40
71145;BME280;58812;47.698;17.726;2023-04-03T07:35:05;100569.44;;;6.52;61.44
71145;BME280;58812;47.698;17.726;2023-04-03T07:37:31;100562.72;;;6.59;61.34
71145;BME280;58812;47.698;17.726;2023-04-03T07:39:57;100573.28;;;7.42;59.45
71145;BME280;58812;47.698;17.726;2023-04-03T07:42:24;100581.22;;;6.60;60.00
71145;BME280;58812;47.698;17.726;2023-04-03T07:44:53;100578.00;;;6.68;60.40
71145;BME280;58812;47.698;17.726;2023-04-03T07:47:19;100575.66;;;6.63;59.94
71145;BME280;58812;47.698;17.726;2023-04-03T07:49:46;100582.66;;;6.77;59.52
71145;BME280;58812;47.698;17.726;2023-04-03T07:52:12;100584.25;;;6.91;59.59
71145;BME280;58812;47.698;17.726;2023-04-03T07:54:40;100586.72;;;6.94;58.60
71145;BME280;58812;47.698;17.726;2023-04-03T07:57:05;100591.75;;;6.38;59.85
71145;BME280;58812;47.698;17.726;2023-04-03T07:59:31;100594.41;;;6.86;58.31
71145;BME280;58812;47.698;17.726;2023-04-03T08:01:57;100577.53;;;6.74;58.58
71145;BME280;58812;47.698;17.726;2023-04-03T08:04:22;100590.38;;;7.15;57.71
71145;BME280;58812;47.698;17.726;2023-04-03T08:06:48;100591.56;;;7.11;56.87
71145;BME280;58812;47.698;17.726;2023-04-03T08:09:16;100593.63;;;7.76;55.30
71145;BME280;58812;47.698;17.726;2023-04-03T08:11:43;100599.09;;;8.20;53.74
71145;BME280;58812;47.698;17.726;2023-04-03T08:14:08;100598.97;;;7.99;53.78
71145;BME280;58812;47.698;17.726;2023-04-03T08:16:40;100605.72;;;7.58;53.19
71145;BME280;58812;47.698;17.726;2023-04-03T08:19:06;100602.13;;;8.15;51.95
71145;BME280;58812;47.698;17.726;2023-04-03T08:21:32;100601.06;;;8.07;51.47
71145;BME280;58812;47.698;17.726;2023-04-03T08:23:58;100603.56;;;8.30;51.27
71145;BME280;58812;47.698;17.726;2023-04-03T08:26:23;100599.22;;;8.07;50.63
71145;BME280;58812;47.698;17.726;2023-04-03T08:28:49;100591.66;;;8.46;50.51
71145;BME280;58812;47.698;17.726;2023-04-03T08:31:17;100601.31;;;9.22;48.96
71145;BME280;58812;47.698;17.726;2023-04-03T08:33:43;100588.47;;;8.63;48.28
71145;BME280;58812;47.698;17.726;2023-04-03T08:36:26;100596.78;;;8.49;49.03
71145;BME280;58812;47.698;17.726;2023-04-03T08:38:53;100596.06;;;7.91;49.43
71145;BME280;58812;47.698;17.726;2023-04-03T08:41:38;100610.25;;;9.12;48.63
71145;BME280;58812;47.698;17.726;2023-04-03T08:49:26;100620.06;;;8.02;48.04
71145;BME280;58812;47.698;17.726;2023-04-03T08:51:54;100625.78;;;8.86;46.28
71145;BME280;58812;47.698;17.726;2023-04-03T08:54:28;100621.78;;;8.80;46.69
71145;BME280;58812;47.698;17.726;2023-04-03T08:56:55;100614.84;;;8.77;46.19
71145;BME280;58812;47.698;17.726;2023-04-03T08:59:29;100620.44;;;8.86;45.60
71145;BME280;58812;47.698;17.726;2023-04-03T09:01:57;100603.63;;;8.95;46.23
71145;BME280;58812;47.698;17.726;2023-04-03T09:04:25;100613.37;;;9.17;45.72
71145;BME280;58812;47.698;17.726;2023-04-03T09:06:55;100606.94;;;8.87;46.04
71145;BME280;58812;47.698;17.726;2023-04-03T09:12:04;100596.56;;;8.73;46.88
71145;BME280;58812;47.698;17.726;2023-04-03T09:22:43;100609.03;;;8.40;46.17
71145;BME280;58812;47.698;17.726;2023-04-03T09:25:31;100611.94;;;8.80;45.03
71145;BME280;58812;47.698;17.726;2023-04-03T09:27:59;100612.12;;;9.42;44.24
71145;BME280;58812;47.698;17.726;2023-04-03T09:30:26;100613.66;;;9.34;44.54
71145;BME280;58812;47.698;17.726;2023-04-03T09:32:55;100623.75;;;9.31;43.87
71145;BME280;58812;47.698;17.726;2023-04-03T09:35:27;100619.50;;;8.75;44.07
71145;BME280;58812;47.698;17.726;2023-04-03T09:38:00;100605.91;;;9.31;44.17
71145;BME280;58812;47.698;17.726;2023-04-03T09:42:53;100619.91;;;8.92;43.62
71145;BME280;58812;47.698;17.726;2023-04-03T09:45:26;100621.19;;;9.71;42.71
71145;BME280;58812;47.698;17.726;2023-04-03T09:50:38;100620.69;;;8.71;42.74
71145;BME280;58812;47.698;17.726;2023-04-03T09:53:38;100611.31;;;8.00;43.30
71145;BME280;58812;47.698;17.726;2023-04-03T09:56:25;100617.44;;;9.32;42.41
71145;BME280;58812;47.698;17.726;2023-04-03T10:01:30;100632.06;;;9.17;41.27
71145;BME280;58812;47.698;17.726;2023-04-03T10:04:18;100625.84;;;9.27;41.51
71145;BME280;58812;47.698;17.726;2023-04-03T10:06:46;100615.28;;;9.47;41.00
71145;BME280;58812;47.698;17.726;2023-04-03T10:09:32;100624.28;;;9.67;41.18
71145;BME280;58812;47.698;17.726;2023-04-03T10:12:01;100622.38;;;9.16;42.07
71145;BME280;58812;47.698;17.726;2023-04-03T10:14:28;100620.03;;;9.22;41.56
71145;BME280;58812;47.698;17.726;2023-04-03T10:21:58;100600.13;;;10.18;40.50
71145;BME280;58812;47.698;17.726;2023-04-03T10:27:27;100610.31;;;9.63;40.43
71145;BME280;58812;47.698;17.726;2023-04-03T10:35:44;100613.63;;;9.76;40.38
71145;BME280;58812;47.698;17.726;2023-04-03T10:40:55;100610.09;;;10.37;39.83
71145;BME280;58812;47.698;17.726;2023-04-03T10:43:43;100608.47;;;9.84;40.55
71145;BME280;58812;47.698;17.726;2023-04-03T10:46:28;100615.31;;;9.77;40.36
71145;BME280;58812;47.698;17.726;2023-04-03T10:51:44;100597.84;;;10.13;39.89
71145;BME280;58812;47.698;17.726;2023-04-03T10:56:47;100606.44;;;10.48;39.37
71145;BME280;58812;47.698;17.726;2023-04-03T11:01:57;100597.88;;;10.44;39.53
71145;BME280;58812;47.698;17.726;2023-04-03T11:04:27;100602.97;;;10.76;38.77
71145;BME280;58812;47.698;17.726;2023-04-03T11:07:02;100591.91;;;10.31;39.68
71145;BME280;58812;47.698;17.726;2023-04-03T11:09:40;100599.41;;;9.76;39.91
71145;BME280;58812;47.698;17.726;2023-04-03T11:12:38;100599.56;;;9.53;40.10
71145;BME280;58812;47.698;17.726;2023-04-03T11:15:12;100596.41;;;10.30;39.72
71145;BME280;58812;47.698;17.726;2023-04-03T11:17:46;100591.97;;;10.10;39.65
71145;BME280;58812;47.698;17.726;2023-04-03T11:20:21;100605.69;;;9.02;40.86
71145;BME280;58812;47.698;17.726;2023-04-03T11:25:43;100602.72;;;8.85;42.23
71145;BME280;58812;47.698;17.726;2023-04-03T11:28:13;100589.87;;;9.31;42.07
71145;BME280;58812;47.698;17.726;2023-04-03T11:31:12;100601.94;;;8.94;42.44
71145;BME280;58812;47.698;17.726;2023-04-03T11:36:28;100589.97;;;8.45;42.13
71145;BME280;58812;47.698;17.726;2023-04-03T11:38:58;100580.50;;;8.52;42.01
71145;BME280;58812;47.698;17.726;2023-04-03T11:41:28;100595.81;;;8.16;43.23
71145;BME280;58812;47.698;17.726;2023-04-03T11:44:04;100583.72;;;8.01;43.17
71145;BME280;58812;47.698;17.726;2023-04-03T12:05:48;100595.16;;;8.35;43.08
71145;BME280;58812;47.698;17.726;2023-04-03T12:08:29;100596.56;;;8.07;43.71
71145;BME280;58812;47.698;17.726;2023-04-03T12:26:51;100593.63;;;8.44;42.18
71145;BME280;58812;47.698;17.726;2023-04-03T12:43:48;100595.09;;;8.03;42.30
71145;BME280;58812;47.698;17.726;2023-04-03T12:46:18;100593.25;;;7.70;42.95
71145;BME280;58812;47.698;17.726;2023-04-03T12:51:18;100590.34;;;8.29;42.15
71145;BME280;58812;47.698;17.726;2023-04-03T12:53:45;100583.09;;;7.86;42.82
71145;BME280;58812;47.698;17.726;2023-04-03T12:56:24;100585.63;;;7.99;42.20
71145;BME280;58812;47.698;17.726;2023-04-03T12:58:52;100582.03;;;7.78;42.10
71145;BME280;58812;47.698;17.726;2023-04-03T13:01:24;100585.13;;;8.16;41.71
71145;BME280;58812;47.698;17.726;2023-04-03T13:03:54;100579.47;;;8.64;41.52
71145;BME280;58812;47.698;17.726;2023-04-03T13:06:53;100593.16;;;7.71;42.14
71145;BME280;58812;47.698;17.726;2023-04-03T13:09:27;100595.06;;;8.48;40.86
71145;BME280;58812;47.698;17.726;2023-04-03T13:12:15;100590.75;;;8.13;40.62
71145;BME280;58812;47.698;17.726;2023-04-03T13:14:52;100577.09;;;8.61;40.25
71145;BME280;58812;47.698;17.726;2023-04-03T13:17:18;100583.44;;;8.81;39.54
71145;BME280;58812;47.698;17.726;2023-04-03T13:19:45;100576.06;;;8.73;39.71
71145;BME280;58812;47.698;17.726;2023-04-03T13:22:35;100554.94;;;8.27;39.21
71145;BME280;58812;47.698;17.726;2023-04-03T13:25:07;100578.47;;;8.76;39.45
71145;BME280;58812;47.698;17.726;2023-04-03T13:27:33;100570.41;;;8.88;39.39
71145;BME280;58812;47.698;17.726;2023-04-03T13:30:00;100569.13;;;9.45;38.83
71145;BME280;58812;47.698;17.726;2023-04-03T13:32:29;100566.25;;;9.36;39.27
71145;BME280;58812;47.698;17.726;2023-04-03T13:34:56;100571.66;;;9.67;39.11
71145;BME280;58812;47.698;17.726;2023-04-03T13:37:27;100569.28;;;8.15;40.03
71145;BME280;58812;47.698;17.726;2023-04-03T13:40:04;100570.38;;;8.01;40.82
71145;BME280;58812;47.698;17.726;2023-04-03T13:42:38;100573.28;;;7.64;41.03
71145;BME280;58812;47.698;17.726;2023-04-03T13:45:23;100567.72;;;7.67;41.10
71145;BME280;58812;47.698;17.726;2023-04-03T13:47:52;100566.25;;;7.97;40.56
71145;BME280;58812;47.698;17.726;2023-04-03T13:50:22;100561.69;;;7.65;40.19
71145;BME280;58812;47.698;17.726;2023-04-03T13:52:55;100559.44;;;8.15;40.26
71145;BME280;58812;47.698;17.726;2023-04-03T13:55:28;100554.31;;;8.46;39.11
71145;BME280;58812;47.698;17.726;2023-04-03T14:00:39;100541.78;;;8.03;38.52
71145;BME280;58812;47.698;17.726;2023-04-03T14:06:05;100545.91;;;7.85;39.89
71145;BME280;58812;47.698;17.726;2023-04-03T14:08:31;100532.41;;;8.31;39.87
71145;BME280;58812;47.698;17.726;2023-04-03T14:10:57;100530.91;;;7.95;39.39
71145;BME280;58812;47.698;17.726;2023-04-03T14:13:22;100543.47;;;7.82;39.71
71145;BME280;58812;47.698;17.726;2023-04-03T14:15:48;100540.22;;;7.67;39.41
71145;BME280;58812;47.698;17.726;2023-04-03T14:18:18;100544.81;;;7.76;38.87
71145;BME280;58812;47.698;17.726;2023-04-03T14:20:44;100540.81;;;7.93;38.27
71145;BME280;58812;47.698;17.726;2023-04-03T14:23:10;100535.63;;;7.69;38.65
71145;BME280;58812;47.698;17.726;2023-04-03T14:25:36;100535.47;;;7.93;38.86
71145;BME280;58812;47.698;17.726;2023-04-03T14:28:13;100528.56;;;8.13;38.17
71145;BME280;58812;47.698;17.726;2023-04-03T14:30:40;100515.03;;;7.60;37.77
71145;BME280;58812;47.698;17.726;2023-04-03T14:33:06;100526.28;;;7.74;37.93
71145;BME280;58812;47.698;17.726;2023-04-03T14:35:32;100516.28;;;8.21;37.80
71145;BME280;58812;47.698;17.726;2023-04-03T14:37:57;100528.44;;;8.03;38.20
71145;BME280;58812;47.698;17.726;2023-04-03T14:40:25;100546.25;;;8.14;38.27
71145;BME280;58812;47.698;17.726;2023-04-03T14:42:51;100538.06;;;7.61;38.62
71145;BME280;58812;47.698;17.726;2023-04-03T14:45:21;100541.78;;;7.36;38.66
71145;BME280;58812;47.698;17.726;2023-04-03T14:47:49;100552.22;;;7.50;38.90
71145;BME280;58812;47.698;17.726;2023-04-03T14:50:22;100551.50;;;7.48;38.60
71145;BME280;58812;47.698;17.726;2023-04-03T14:52:49;100544.72;;;7.78;38.52
71145;BME280;58812;47.698;17.726;2023-04-03T14:55:16;100541.75;;;7.13;39.02
71145;BME280;58812;47.698;17.726;2023-04-03T14:57:43;100547.53;;;7.07;39.07